createdAt,value
2023-03-24T00:03:08.052Z,55.11
2023-03-24T00:06:35.205Z,54.68
2023-03-24T00:09:41.178Z,52.33
2023-03-24T00:12:48.941Z,51.89
2023-03-24T00:15:57.550Z,50.54
2023-03-24T00:19:10.919Z,54.72
2023-03-24T00:22:17.285Z,54.32
2023-03-24T00:25:30.050Z,52.92
2023-03-24T00:28:39.418Z,53.87
2023-03-24T00:31:49.992Z,55.48
2023-03-24T00:34:56.170Z,54.59
2023-03-24T00:38:03.205Z,57.53
2023-03-24T00:41:18.157Z,53.27
2023-03-24T00:44:29.206Z,60.23
2023-03-24T00:47:39.542Z,67.02
2023-03-24T00:50:49.834Z,70.82
2023-03-24T00:53:58.245Z,71.18
2023-03-24T00:57:06.645Z,71.39
2023-03-24T01:00:17.235Z,68.44
2023-03-24T01:03:29.164Z,69.56
2023-03-24T01:06:41.457Z,71.05
2023-03-24T01:09:58.974Z,76.54
2023-03-24T01:13:07.619Z,93.14
2023-03-24T01:16:15.941Z,103.53
2023-03-24T01:19:26.605Z,99.51
2023-03-24T01:22:37.843Z,86.97
2023-03-24T01:25:48.445Z,73.59
2023-03-24T01:28:55.376Z,70.94
2023-03-24T01:32:01.404Z,67.20
2023-03-24T01:35:11.879Z,66.34
2023-03-24T01:38:20.511Z,74.09
2023-03-24T01:41:35.686Z,69.91
2023-03-24T01:44:42.426Z,59.04
2023-03-24T01:47:49.509Z,60.29
2023-03-24T01:51:06.443Z,58.70
2023-03-24T01:54:22.223Z,62.06
2023-03-24T01:57:46.821Z,59.21
2023-03-24T02:00:54.949Z,64.59
2023-03-24T02:04:28.227Z,74.05
2023-03-24T02:08:25.025Z,75.12
2023-03-24T02:11:48.450Z,75.71
2023-03-24T02:14:56.798Z,79.45
2023-03-24T02:18:18.729Z,78.14
2023-03-24T02:22:10.156Z,84.09
2023-03-24T02:26:03.592Z,95.64
2023-03-24T02:30:09.050Z,100.43
2023-03-24T02:34:18.021Z,104.42
2023-03-24T02:38:15.608Z,111.30
2023-03-24T02:41:37.340Z,110.92
2023-03-24T02:45:00.220Z,111.71
2023-03-24T02:48:30.652Z,108.71
2023-03-24T02:51:54.685Z,106.14
2023-03-24T02:55:09.903Z,98.08
2023-03-24T02:58:32.493Z,93.76
2023-03-24T03:01:56.480Z,90.00
2023-03-24T03:05:28.392Z,91.26
2023-03-24T03:08:39.579Z,93.39
2023-03-24T03:11:56.144Z,93.79
2023-03-24T03:15:13.172Z,101.97
2023-03-24T03:18:29.562Z,106.87
2023-03-24T03:21:45.464Z,108.05
2023-03-24T03:25:01.560Z,97.50
2023-03-24T03:28:13.656Z,101.45
2023-03-24T03:31:32.921Z,92.93
2023-03-24T03:34:50.983Z,92.85
2023-03-24T03:38:17.933Z,93.95
2023-03-24T03:41:27.308Z,93.34
2023-03-24T03:44:35.588Z,98.45
2023-03-24T03:47:44.890Z,103.75
2023-03-24T03:50:59.862Z,111.54
2023-03-24T03:54:20.064Z,110.90
2023-03-24T03:57:28.471Z,112.78
2023-03-24T04:00:59.691Z,116.54
2023-03-24T04:05:14.081Z,115.61
2023-03-24T04:08:51.942Z,115.32
2023-03-24T04:12:28.787Z,120.16
2023-03-24T04:16:05.073Z,122.11
2023-03-24T04:20:05.953Z,121.08
2023-03-24T04:23:31.250Z,123.33
2023-03-24T04:26:51.596Z,118.14
2023-03-24T04:30:16.958Z,116.96
2023-03-24T04:33:44.022Z,130.51
2023-03-24T04:37:03.128Z,148.23
2023-03-24T04:40:29.754Z,169.89
2023-03-24T04:43:48.705Z,152.86
2023-03-24T04:47:01.815Z,148.88
2023-03-24T04:50:14.200Z,151.06
2023-03-24T04:53:23.938Z,195.40
2023-03-24T04:56:41.476Z,231.47
2023-03-24T05:00:02.808Z,261.68
2023-03-24T05:03:10.009Z,214.53
2023-03-24T05:06:17.819Z,185.67
2023-03-24T05:09:31.865Z,187.94
2023-03-24T05:12:40.693Z,202.28
2023-03-24T05:15:52.711Z,208.45
2023-03-24T05:19:20.800Z,193.40
2023-03-24T05:22:27.489Z,173.61
2023-03-24T05:25:36.979Z,173.01
2023-03-24T05:28:43.260Z,179.61
2023-03-24T05:31:52.029Z,181.23
2023-03-24T05:35:01.293Z,180.11
2023-03-24T05:38:12.494Z,176.12
2023-03-24T05:41:28.666Z,185.87
2023-03-24T05:44:36.157Z,211.70
2023-03-24T05:47:51.843Z,231.92
2023-03-24T05:51:15.892Z,244.45
2023-03-24T05:54:22.665Z,246.26
2023-03-24T05:57:36.984Z,243.02
2023-03-24T06:01:01.919Z,245.24
2023-03-24T06:04:15.236Z,268.52
2023-03-24T06:07:22.506Z,294.15
2023-03-24T06:10:30.106Z,277.60
2023-03-24T06:13:40.018Z,293.49
2023-03-24T06:16:50.282Z,324.66
2023-03-24T06:20:03.216Z,397.95
2023-03-24T06:23:24.169Z,439.64
2023-03-24T06:26:44.970Z,392.74
2023-03-24T06:29:56.315Z,323.19
2023-03-24T06:33:02.654Z,287.31
2023-03-24T06:36:11.635Z,256.01
2023-03-24T06:39:21.949Z,238.70
2023-03-24T06:42:29.063Z,220.17
2023-03-24T06:45:39.757Z,225.26
2023-03-24T06:48:54.431Z,223.37
2023-03-24T06:52:00.715Z,225.13
2023-03-24T06:55:13.183Z,220.89
2023-03-24T06:58:24.997Z,215.62
2023-03-24T07:01:49.828Z,212.18
2023-03-24T07:05:01.819Z,207.14
2023-03-24T07:11:36.943Z,205.60
2023-03-24T07:14:46.315Z,207.80
2023-03-24T07:17:55.204Z,203.54
2023-03-24T07:21:15.528Z,206.51
2023-03-24T07:24:21.886Z,216.74
2023-03-24T07:27:44.534Z,229.37
2023-03-24T07:30:53.931Z,220.50
2023-03-24T07:34:05.042Z,217.84
2023-03-24T07:37:12.855Z,219.51
2023-03-24T07:40:20.853Z,223.39
2023-03-24T07:43:27.429Z,214.43
2023-03-24T07:46:55.657Z,194.71
2023-03-24T07:50:07.218Z,183.58
2023-03-24T07:53:20.315Z,179.81
2023-03-24T07:56:27.562Z,176.06
2023-03-24T07:59:37.314Z,168.98
2023-03-24T08:03:10.045Z,158.79
2023-03-24T08:06:29.836Z,158.35
2023-03-24T08:09:56.172Z,158.14
2023-03-24T08:13:04.061Z,166.05
2023-03-24T08:16:11.578Z,163.79
2023-03-24T08:19:18.435Z,155.18
2023-03-24T08:22:27.512Z,153.52
2023-03-24T08:25:34.962Z,148.87
2023-03-24T08:28:41.895Z,142.35
2023-03-24T08:31:50.529Z,139.61
2023-03-24T08:34:58.544Z,138.84
2023-03-24T08:38:12.228Z,142.42
2023-03-24T08:41:18.334Z,137.15
2023-03-24T08:44:25.281Z,134.39
2023-03-24T08:47:33.083Z,127.19
2023-03-24T08:50:43.398Z,116.21
2023-03-24T08:53:54.241Z,108.61
2023-03-24T08:57:01.148Z,104.79
2023-03-24T09:00:15.196Z,103.80
2023-03-24T09:03:24.409Z,94.18
2023-03-24T09:06:33.173Z,90.96
2023-03-24T09:09:42.750Z,91.37
2023-03-24T09:12:49.747Z,99.45
2023-03-24T09:16:02.966Z,89.37
2023-03-24T09:19:09.547Z,92.01
2023-03-24T09:22:19.018Z,90.21
2023-03-24T09:25:34.017Z,91.67
2023-03-24T09:28:40.884Z,89.83
2023-03-24T09:31:46.891Z,82.01
2023-03-24T09:34:54.044Z,86.25
2023-03-24T09:38:00.244Z,88.50
2023-03-24T09:41:23.200Z,90.85
2023-03-24T09:44:40.054Z,100.51
2023-03-24T09:48:08.277Z,96.73
2023-03-24T09:51:52.153Z,101.29
2023-03-24T09:55:03.507Z,103.02
2023-03-24T09:58:16.819Z,107.08
2023-03-24T10:01:24.433Z,100.55
2023-03-24T10:04:35.140Z,100.45
2023-03-24T10:07:53.651Z,99.85
2023-03-24T10:11:07.695Z,103.11
2023-03-24T10:14:50.283Z,97.36
2023-03-24T10:18:11.787Z,92.82
2023-03-24T10:21:28.549Z,90.84
2023-03-24T10:24:48.556Z,90.00
2023-03-24T10:28:02.861Z,89.76
2023-03-24T10:31:20.597Z,90.89
2023-03-24T10:34:34.608Z,90.29
2023-03-24T10:37:41.506Z,89.75
2023-03-24T10:40:50.694Z,87.80
2023-03-24T10:44:01.334Z,91.29
2023-03-24T10:47:17.572Z,97.04
2023-03-24T10:50:30.411Z,101.56
2023-03-24T10:53:39.736Z,95.04
2023-03-24T10:56:49.120Z,92.12
2023-03-24T11:00:01.670Z,96.55
2023-03-24T11:03:19.251Z,93.07
2023-03-24T11:06:26.402Z,95.01
2023-03-24T11:09:33.646Z,96.88
2023-03-24T11:12:46.524Z,91.72
2023-03-24T11:16:14.408Z,91.04
2023-03-24T11:19:27.481Z,95.29
2023-03-24T11:22:34.252Z,95.85
2023-03-24T11:25:46.159Z,93.32
2023-03-24T11:28:58.870Z,96.24
2023-03-24T11:32:16.952Z,94.47
2023-03-24T11:35:39.111Z,95.34
2023-03-24T11:39:04.430Z,95.70
2023-03-24T11:42:20.609Z,100.32
2023-03-24T11:45:36.992Z,96.44
2023-03-24T11:48:53.650Z,91.76
2023-03-24T11:52:05.620Z,95.15
2023-03-24T11:55:21.675Z,93.76
2023-03-24T11:58:40.380Z,95.20
2023-03-24T12:01:59.011Z,103.57
2023-03-24T12:05:32.305Z,104.75
2023-03-24T12:09:04.546Z,101.83
2023-03-24T12:12:38.429Z,99.70
2023-03-24T12:16:04.117Z,98.52
2023-03-24T12:20:24.584Z,98.82
2023-03-24T12:23:50.916Z,97.34
2023-03-24T12:27:03.960Z,100.30
2023-03-24T12:30:26.818Z,100.88
2023-03-24T12:33:54.259Z,101.02
2023-03-24T12:37:14.735Z,102.67
2023-03-24T12:41:03.773Z,100.53
2023-03-24T12:44:44.510Z,103.85
2023-03-24T12:48:22.293Z,107.30
2023-03-24T12:51:47.025Z,107.78
2023-03-24T12:55:06.979Z,107.03
2023-03-24T12:58:28.041Z,107.84
2023-03-24T13:01:43.045Z,106.53
2023-03-24T13:04:56.505Z,113.99
2023-03-24T13:08:14.543Z,120.67
2023-03-24T13:11:47.934Z,115.27
2023-03-24T13:15:10.635Z,110.91
2023-03-24T13:18:34.788Z,111.67
2023-03-24T13:21:41.671Z,115.30
2023-03-24T13:24:50.664Z,116.17
2023-03-24T13:28:14.567Z,114.94
2023-03-24T13:31:30.539Z,113.29
2023-03-24T13:34:44.546Z,115.85
2023-03-24T13:38:05.001Z,120.96
2023-03-24T13:41:24.368Z,116.34
2023-03-24T13:44:41.963Z,112.44
2023-03-24T13:48:09.394Z,112.20
2023-03-24T13:51:25.020Z,106.27
2023-03-24T13:54:33.997Z,111.94
2023-03-24T13:57:45.225Z,111.55
2023-03-24T14:01:34.669Z,111.16
2023-03-24T14:05:05.852Z,114.29
2023-03-24T14:08:22.144Z,116.53
2023-03-24T14:11:49.866Z,109.07
2023-03-24T14:15:23.966Z,110.48
2023-03-24T14:18:46.301Z,97.80
2023-03-24T14:22:18.534Z,84.30
2023-03-24T14:25:33.415Z,84.65
2023-03-24T14:28:46.966Z,83.00
2023-03-24T14:35:34.874Z,88.27
2023-03-24T14:38:47.665Z,85.34
2023-03-24T14:41:55.565Z,80.67
2023-03-24T14:45:04.832Z,76.26
2023-03-24T14:48:32.837Z,70.02
2023-03-24T14:51:50.639Z,70.55
2023-03-24T14:55:06.078Z,73.81
2023-03-24T14:58:27.483Z,74.04
2023-03-24T15:01:38.684Z,79.96
2023-03-24T15:04:48.338Z,104.15
2023-03-24T15:08:19.197Z,95.01
2023-03-24T15:11:33.604Z,91.96
2023-03-24T15:14:41.390Z,98.33
2023-03-24T15:17:49.952Z,92.94
2023-03-24T15:21:05.382Z,104.55
2023-03-24T15:24:38.492Z,101.61
2023-03-24T15:27:57.850Z,98.05
2023-03-24T15:31:05.082Z,99.39
2023-03-24T15:34:32.103Z,100.38
2023-03-24T15:37:46.249Z,103.50
2023-03-24T15:41:05.117Z,119.49
2023-03-24T15:44:23.636Z,129.21
2023-03-24T15:47:40.230Z,136.37
2023-03-24T15:51:01.146Z,124.72
2023-03-24T15:54:08.131Z,106.29
2023-03-24T15:57:25.960Z,94.00
2023-03-24T16:00:45.999Z,108.60
2023-03-24T16:03:52.521Z,113.96
2023-03-24T16:07:00.867Z,98.35
2023-03-24T16:10:28.081Z,107.76
2023-03-24T16:13:35.022Z,118.96
2023-03-24T16:16:46.873Z,108.45
2023-03-24T16:19:54.034Z,100.47
2023-03-24T16:23:00.134Z,133.59
2023-03-24T16:26:09.753Z,128.97
2023-03-24T16:29:21.177Z,105.21
2023-03-24T16:32:33.780Z,100.11
2023-03-24T16:35:40.115Z,112.97
2023-03-24T16:38:49.391Z,122.09
2023-03-24T16:41:56.123Z,143.67
2023-03-24T16:45:02.927Z,145.18
2023-03-24T16:48:14.370Z,159.08
2023-03-24T16:51:21.790Z,166.69
2023-03-24T16:54:27.840Z,169.26
2023-03-24T16:57:35.452Z,153.17
2023-03-24T17:00:44.089Z,170.36
2023-03-24T17:03:54.815Z,203.28
2023-03-24T17:07:07.461Z,169.62
2023-03-24T17:10:25.919Z,148.36
2023-03-24T17:13:31.954Z,171.86
2023-03-24T17:16:43.894Z,185.22
2023-03-24T17:19:54.641Z,197.60
2023-03-24T17:23:01.944Z,182.24
2023-03-24T17:26:11.157Z,163.75
2023-03-24T17:29:18.450Z,135.53
2023-03-24T17:32:26.589Z,158.33
2023-03-24T17:35:36.386Z,189.02
2023-03-24T17:38:44.347Z,214.13
2023-03-24T17:41:57.959Z,226.09
2023-03-24T17:45:08.756Z,210.48
2023-03-24T17:48:21.755Z,241.50
2023-03-24T17:51:33.352Z,203.78
2023-03-24T17:54:40.376Z,246.80
2023-03-24T17:57:47.652Z,261.38
2023-03-24T18:01:08.999Z,241.60
2023-03-24T18:04:15.334Z,226.95
2023-03-24T18:07:27.572Z,209.87
2023-03-24T18:10:40.670Z,218.35
2023-03-24T18:13:54.393Z,220.87
2023-03-24T18:17:00.527Z,242.04
2023-03-24T18:20:15.088Z,220.68
2023-03-24T18:23:23.744Z,246.23
2023-03-24T18:26:31.043Z,203.88
2023-03-24T18:29:37.157Z,191.38
2023-03-24T18:32:49.451Z,181.64
2023-03-24T18:35:57.316Z,173.79
2023-03-24T18:39:24.174Z,172.03
2023-03-24T18:42:30.469Z,173.16
2023-03-24T18:45:37.520Z,177.30
2023-03-24T18:48:47.962Z,171.84
2023-03-24T18:51:54.929Z,162.21
2023-03-24T18:55:05.375Z,149.94
2023-03-24T18:58:15.562Z,160.24
2023-03-24T19:01:24.401Z,165.15
2023-03-24T19:04:31.425Z,166.37
2023-03-24T19:07:37.625Z,160.66
2023-03-24T19:10:49.054Z,140.86
2023-03-24T19:13:55.262Z,136.44
2023-03-24T19:17:07.236Z,148.98
2023-03-24T19:20:15.683Z,128.04
2023-03-24T19:23:22.972Z,122.21
2023-03-24T19:26:34.939Z,125.25
2023-03-24T19:29:42.482Z,110.86
2023-03-24T19:32:49.801Z,117.44
2023-03-24T19:35:58.726Z,117.98
2023-03-24T19:39:05.048Z,128.93
2023-03-24T19:42:22.020Z,136.39
2023-03-24T19:45:28.513Z,128.93
2023-03-24T19:48:36.654Z,135.73
2023-03-24T19:51:42.622Z,145.21
2023-03-24T19:54:52.786Z,153.44
2023-03-24T19:58:03.538Z,178.61
2023-03-24T20:01:10.420Z,203.73
2023-03-24T20:04:19.284Z,168.48
2023-03-24T20:07:29.514Z,172.70
2023-03-24T20:10:43.130Z,194.64
2023-03-24T20:13:52.562Z,211.36
2023-03-24T20:16:58.629Z,208.83
2023-03-24T20:20:05.706Z,185.49
2023-03-24T20:23:12.558Z,177.30
2023-03-24T20:26:19.454Z,152.22
2023-03-24T20:29:28.221Z,113.97
2023-03-24T20:32:35.248Z,108.96
2023-03-24T20:35:41.301Z,117.64
2023-03-24T20:38:48.131Z,109.05
2023-03-24T20:41:54.335Z,106.95
2023-03-24T20:45:04.029Z,104.79
2023-03-24T20:48:10.314Z,111.29
2023-03-24T20:51:17.565Z,106.04
2023-03-24T20:54:24.330Z,103.22
2023-03-24T20:57:31.785Z,97.72
2023-03-24T21:00:46.440Z,90.89
2023-03-24T21:04:04.798Z,88.11
2023-03-24T21:07:15.407Z,89.49
2023-03-24T21:10:22.386Z,97.81
2023-03-24T21:13:37.190Z,110.40
2023-03-24T21:16:48.306Z,191.96
2023-03-24T21:19:54.953Z,174.90
2023-03-24T21:23:04.690Z,133.07
2023-03-24T21:26:15.999Z,118.53
2023-03-24T21:29:22.963Z,160.06
2023-03-24T21:32:32.040Z,168.65
2023-03-24T21:35:38.935Z,172.05
2023-03-24T21:38:45.206Z,144.08
2023-03-24T21:41:52.760Z,152.16
2023-03-24T21:44:58.780Z,186.51
2023-03-24T21:48:10.279Z,198.67
2023-03-24T21:51:19.048Z,240.09
2023-03-24T21:54:27.013Z,242.13
2023-03-24T21:57:33.061Z,199.09
2023-03-24T22:00:40.442Z,203.90
2023-03-24T22:03:49.089Z,157.11
2023-03-24T22:06:56.573Z,149.17
2023-03-24T22:10:03.600Z,131.03
2023-03-24T22:13:28.577Z,118.75
2023-03-24T22:16:37.674Z,221.85
2023-03-24T22:19:50.395Z,222.70
2023-03-24T22:22:56.593Z,231.62
2023-03-24T22:26:04.815Z,253.35
2023-03-24T22:29:11.317Z,253.52
2023-03-24T22:32:36.676Z,263.68
2023-03-24T22:35:45.587Z,218.97
2023-03-24T22:38:52.499Z,261.37
2023-03-24T22:41:58.775Z,172.84
2023-03-24T22:45:05.641Z,128.58
2023-03-24T22:48:11.962Z,118.96
2023-03-24T22:51:21.987Z,115.87
2023-03-24T22:54:28.201Z,190.15
2023-03-24T22:57:36.332Z,193.25
2023-03-24T23:00:42.414Z,121.62
2023-03-24T23:03:49.240Z,104.99
2023-03-24T23:06:58.808Z,109.85
2023-03-24T23:10:06.788Z,100.28
2023-03-24T23:13:13.640Z,118.64
2023-03-24T23:16:21.560Z,174.65
2023-03-24T23:19:28.434Z,261.29
2023-03-24T23:22:39.241Z,297.45
2023-03-24T23:25:48.886Z,162.78
2023-03-24T23:28:59.398Z,160.52
2023-03-24T23:32:05.660Z,182.14
2023-03-24T23:35:14.712Z,141.77
2023-03-24T23:38:36.598Z,166.08
2023-03-24T23:41:43.332Z,194.67
2023-03-24T23:44:49.509Z,203.11
2023-03-24T23:47:57.629Z,220.89
2023-03-24T23:51:08.177Z,153.03
2023-03-24T23:54:17.819Z,262.55
2023-03-24T23:57:23.998Z,335.60
